AWST,Max TemperatureF,Mean TemperatureF,Min TemperatureF,Max Dew PointF,MeanDew PointF,Min DewpointF,Max Humidity, Mean Humidity, Min Humidity, Max Sea Level PressureIn, Mean Sea Level PressureIn, Min Sea Level PressureIn, Max VisibilityMiles, Mean VisibilityMiles, Min VisibilityMiles, Max Wind SpeedMPH, Mean Wind SpeedMPH, Max Gust SpeedMPH,PrecipitationIn, CloudCover, Events, WindDirDegrees
2013-2-1,109,91,73,77,64,32,83,48,4,29.89,29.82,29.77,6,6,6,14,6,,0.00,,,258
2013-2-2,101,88,75,75,64,54,70,43,18,29.87,29.82,29.77,6,6,6,17,8,,0.00,,,135
2013-2-3,107,91,75,64,52,34,58,27,5,29.86,29.81,29.74,6,6,6,24,7,30,0.00,,,216
2013-2-4,106,92,77,77,67,39,69,47,10,29.90,29.84,29.80,11,7,6,13,7,,0.00,1,,176
2013-2-5,110,96,81,72,50,30,62,26,4,29.88,29.83,29.74,11,7,6,18,9,,0.00,3,,209
2013-2-6,116,99,82,68,46,23,49,21,4,29.83,29.75,29.65,11,7,6,25,14,34,0.00,1,,182
2013-2-7,112,95,78,72,55,32,74,32,4,29.74,29.69,29.59,11,7,6,24,18,36,0.00,1,,184
2013-2-8,94,84,75,79,73,64,83,67,46,29.85,29.76,29.68,6,6,5,22,12,,0.00,,,19
2013-2-9,98,88,77,78,74,68,89,66,34,29.89,29.80,29.71,6,6,6,18,8,31,0.00,8,,337
2013-2-10,100,88,76,75,69,54,79,56,15,29.92,29.79,29.71,11,6,3,26,11,41,0.00,8,,252
2013-2-11,98,86,73,74,69,64,83,60,31,29.91,29.80,29.71,11,7,6,20,11,29,0.00,3,,197
2013-2-12,103,88,72,75,64,54,79,48,15,29.86,29.79,29.71,12,7,6,20,9,,0.00,3,,184
2013-2-13,106,92,77,72,63,50,78,42,9,29.81,29.75,29.65,12,7,6,20,13,34,0.00,2,,179
2013-2-14,105,92,80,77,70,57,84,54,17,29.79,29.72,29.62,11,7,6,21,10,29,0.00,2,Rain-Thunderstorm,189
2013-2-15,99,88,78,77,72,61,78,58,26,29.76,29.68,29.59,6,6,6,17,12,,0.00,4,,168
2013-2-16,96,86,76,79,72,64,94,64,31,29.75,29.68,29.59,6,6,6,16,6,,0.00,3,,34
2013-2-17,100,90,80,78,73,64,84,61,24,29.74,29.68,29.62,6,6,6,20,8,,0.02,4,,193
2013-2-18,102,90,77,77,70,63,94,57,20,29.74,29.67,29.59,11,7,4,24,8,34,0.00,4,,172
2013-2-19,97,88,80,76,72,68,84,58,32,29.76,29.69,29.62,11,7,6,18,12,,0.00,3,,53
2013-2-20,106,94,81,74,70,57,74,48,13,29.72,29.65,29.59,11,7,6,16,8,,0.00,1,,195
2013-2-21,99,92,84,77,73,66,79,53,33,29.71,29.64,29.59,11,6,6,23,9,,0.00,1,,264
2013-2-22,104,92,79,81,73,64,100,61,21,29.72,29.67,29.59,6,6,4,18,7,30,0.00,5,,181
2013-2-23,111,96,81,74,65,55,70,42,12,29.69,29.59,29.47,6,6,6,23,15,32,0.00,5,,180
2013-2-24,106,92,79,66,57,44,55,34,7,29.61,29.54,29.44,11,7,6,24,17,33,0.00,6,,185
2013-2-25,108,92,76,72,64,57,66,44,13,29.59,29.53,29.44,11,7,6,17,13,33,0.00,7,Rain,184
2013-2-26,103,90,78,73,68,62,83,52,19,29.59,29.52,29.44,12,7,6,20,11,,0.00,4,Rain,156
2013-2-27,103,92,80,73,65,57,70,43,17,29.56,29.50,29.42,12,7,6,23,12,30,0.00,1,,133
2013-2-28,100,88,77,70,61,54,58,38,16,29.56,29.50,29.42,12,7,6,25,12,37,0.00,4,,158